sensor_id;sensor_type;location;lat;lon;timestamp;pressure;altitude;pressure_sealevel;temperature;humidity
18569;BME280;14780;48.316;-1.050;2023-04-10T00:00:19;99221.84;;;20.96;37.88
18569;BME280;14780;48.316;-1.050;2023-04-10T00:03:05;99222.91;;;20.95;38.06
18569;BME280;14780;48.316;-1.050;2023-04-10T00:05:50;99216.66;;;20.95;37.98
18569;BME280;14780;48.316;-1.050;2023-04-10T00:08:34;99210.13;;;20.96;38.03
18569;BME280;14780;48.316;-1.050;2023-04-10T00:11:19;99216.41;;;20.96;38.04
18569;BME280;14780;48.316;-1.050;2023-04-10T00:14:03;99212.28;;;20.94;38.04
18569;BME280;14780;48.316;-1.050;2023-04-10T00:16:49;99219.38;;;20.95;37.94
18569;BME280;14780;48.316;-1.050;2023-04-10T00:19:34;99214.75;;;20.95;37.97
18569;BME280;14780;48.316;-1.050;2023-04-10T00:22:19;99216.06;;;20.93;38.00
18569;BME280;14780;48.316;-1.050;2023-04-10T00:25:04;99211.97;;;20.90;37.84
18569;BME280;14780;48.316;-1.050;2023-04-10T00:27:50;99207.34;;;20.91;38.08
18569;BME280;14780;48.316;-1.050;2023-04-10T00:30:34;99206.53;;;20.90;38.01
18569;BME280;14780;48.316;-1.050;2023-04-10T00:33:19;99209.00;;;20.92;38.03
18569;BME280;14780;48.316;-1.050;2023-04-10T00:36:04;99209.47;;;20.89;38.09
18569;BME280;14780;48.316;-1.050;2023-04-10T00:38:49;99193.16;;;20.89;38.02
18569;BME280;14780;48.316;-1.050;2023-04-10T00:41:34;99196.97;;;20.88;38.04
18569;BME280;14780;48.316;-1.050;2023-04-10T00:44:19;99198.88;;;20.87;38.04
18569;BME280;14780;48.316;-1.050;2023-04-10T00:47:04;99199.09;;;20.86;38.07
18569;BME280;14780;48.316;-1.050;2023-04-10T00:49:50;99190.91;;;20.86;38.21
18569;BME280;14780;48.316;-1.050;2023-04-10T00:52:35;99179.22;;;20.85;38.05
18569;BME280;14780;48.316;-1.050;2023-04-10T00:55:20;99178.41;;;20.85;38.21
18569;BME280;14780;48.316;-1.050;2023-04-10T00:58:04;99164.25;;;20.83;38.19
18569;BME280;14780;48.316;-1.050;2023-04-10T01:00:50;99156.09;;;20.83;38.17
18569;BME280;14780;48.316;-1.050;2023-04-10T01:03:37;99156.66;;;20.85;38.16
18569;BME280;14780;48.316;-1.050;2023-04-10T01:10:05;99157.72;;;20.84;38.16
18569;BME280;14780;48.316;-1.050;2023-04-10T01:16:00;99155.50;;;20.81;38.15
18569;BME280;14780;48.316;-1.050;2023-04-10T01:18:52;99154.41;;;20.82;38.11
18569;BME280;14780;48.316;-1.050;2023-04-10T01:21:41;99143.25;;;20.78;38.15
18569;BME280;14780;48.316;-1.050;2023-04-10T01:24:58;99138.59;;;20.79;38.15
18569;BME280;14780;48.316;-1.050;2023-04-10T01:28:15;99139.69;;;20.78;38.14
18569;BME280;14780;48.316;-1.050;2023-04-10T01:31:06;99124.94;;;20.74;38.32
18569;BME280;14780;48.316;-1.050;2023-04-10T01:33:57;99111.94;;;20.76;38.27
18569;BME280;14780;48.316;-1.050;2023-04-10T01:36:50;99108.38;;;20.75;38.27
18569;BME280;14780;48.316;-1.050;2023-04-10T01:39:39;99102.13;;;20.75;38.30
18569;BME280;14780;48.316;-1.050;2023-04-10T01:42:27;99092.31;;;20.74;38.33
18569;BME280;14780;48.316;-1.050;2023-04-10T01:45:17;99099.41;;;20.75;38.28
18569;BME280;14780;48.316;-1.050;2023-04-10T01:48:02;99105.09;;;20.73;38.39
18569;BME280;14780;48.316;-1.050;2023-04-10T01:50:48;99098.81;;;20.73;38.41
18569;BME280;14780;48.316;-1.050;2023-04-10T01:53:35;99098.59;;;20.74;38.34
18569;BME280;14780;48.316;-1.050;2023-04-10T01:56:20;99095.31;;;20.72;38.43
18569;BME280;14780;48.316;-1.050;2023-04-10T01:59:05;99090.66;;;20.73;38.41
18569;BME280;14780;48.316;-1.050;2023-04-10T02:01:58;99090.66;;;20.73;38.34
18569;BME280;14780;48.316;-1.050;2023-04-10T02:04:44;99082.78;;;20.71;38.38
18569;BME280;14780;48.316;-1.050;2023-04-10T02:10:41;99079.78;;;20.73;38.46
18569;BME280;14780;48.316;-1.050;2023-04-10T02:13:28;99091.19;;;20.70;38.43
18569;BME280;14780;48.316;-1.050;2023-04-10T02:16:15;99089.53;;;20.69;38.38
18569;BME280;14780;48.316;-1.050;2023-04-10T02:19:03;99093.34;;;20.68;38.47
18569;BME280;14780;48.316;-1.050;2023-04-10T02:21:51;99097.69;;;20.69;38.41
18569;BME280;14780;48.316;-1.050;2023-04-10T02:24:37;99083.28;;;20.68;38.49
18569;BME280;14780;48.316;-1.050;2023-04-10T02:27:33;99076.75;;;20.69;38.46
18569;BME280;14780;48.316;-1.050;2023-04-10T02:30:18;99077.03;;;20.68;38.47
18569;BME280;14780;48.316;-1.050;2023-04-10T02:33:03;99053.59;;;20.67;38.51
18569;BME280;14780;48.316;-1.050;2023-04-10T02:35:48;99047.38;;;20.66;38.50
18569;BME280;14780;48.316;-1.050;2023-04-10T02:38:33;99032.13;;;20.65;38.57
18569;BME280;14780;48.316;-1.050;2023-04-10T02:41:18;99041.94;;;20.66;38.50
18569;BME280;14780;48.316;-1.050;2023-04-10T02:44:02;99053.03;;;20.65;38.53
18569;BME280;14780;48.316;-1.050;2023-04-10T02:46:47;99055.75;;;20.65;38.51
18569;BME280;14780;48.316;-1.050;2023-04-10T02:49:35;99052.25;;;20.64;38.56
18569;BME280;14780;48.316;-1.050;2023-04-10T02:52:20;99073.16;;;20.64;38.53
18569;BME280;14780;48.316;-1.050;2023-04-10T02:55:05;99074.22;;;20.63;38.58
18569;BME280;14780;48.316;-1.050;2023-04-10T02:57:50;99072.59;;;20.62;38.60
18569;BME280;14780;48.316;-1.050;2023-04-10T03:00:35;99068.78;;;20.63;38.63
18569;BME280;14780;48.316;-1.050;2023-04-10T03:03:20;99064.69;;;20.60;38.71
18569;BME280;14780;48.316;-1.050;2023-04-10T03:06:05;99070.69;;;20.62;38.57
18569;BME280;14780;48.316;-1.050;2023-04-10T03:08:50;99076.38;;;20.61;38.59
18569;BME280;14780;48.316;-1.050;2023-04-10T03:11:35;99063.84;;;20.60;38.58
18569;BME280;14780;48.316;-1.050;2023-04-10T03:14:19;99053.81;;;20.60;38.53
18569;BME280;14780;48.316;-1.050;2023-04-10T03:17:04;99043.75;;;20.61;38.60
18569;BME280;14780;48.316;-1.050;2023-04-10T03:19:49;99046.16;;;20.57;38.65
18569;BME280;14780;48.316;-1.050;2023-04-10T03:22:34;99046.97;;;20.58;38.64
18569;BME280;14780;48.316;-1.050;2023-04-10T03:25:20;99045.88;;;20.59;38.73
18569;BME280;14780;48.316;-1.050;2023-04-10T03:28:05;99049.69;;;20.58;38.73
18569;BME280;14780;48.316;-1.050;2023-04-10T03:30:49;99042.63;;;20.57;38.68
18569;BME280;14780;48.316;-1.050;2023-04-10T03:33:34;99044.25;;;20.58;38.81
18569;BME280;14780;48.316;-1.050;2023-04-10T03:36:20;99048.88;;;20.57;38.79
18569;BME280;14780;48.316;-1.050;2023-04-10T03:39:05;99058.09;;;20.56;38.89
18569;BME280;14780;48.316;-1.050;2023-04-10T03:41:49;99066.50;;;20.55;38.77
18569;BME280;14780;48.316;-1.050;2023-04-10T03:44:34;99058.34;;;20.55;38.82
18569;BME280;14780;48.316;-1.050;2023-04-10T03:47:19;99053.72;;;20.55;38.77
18569;BME280;14780;48.316;-1.050;2023-04-10T03:50:04;99064.59;;;20.55;38.77
18569;BME280;14780;48.316;-1.050;2023-04-10T03:52:50;99057.75;;;20.53;38.82
18569;BME280;14780;48.316;-1.050;2023-04-10T03:55:34;99064.88;;;20.54;38.82
18569;BME280;14780;48.316;-1.050;2023-04-10T03:58:20;99056.72;;;20.54;38.75
18569;BME280;14780;48.316;-1.050;2023-04-10T04:01:05;99052.31;;;20.53;38.84
18569;BME280;14780;48.316;-1.050;2023-04-10T04:03:50;99052.31;;;20.53;38.86
18569;BME280;14780;48.316;-1.050;2023-04-10T04:06:34;99046.09;;;20.52;38.94
18569;BME280;14780;48.316;-1.050;2023-04-10T04:09:19;99041.97;;;20.50;38.95
18569;BME280;14780;48.316;-1.050;2023-04-10T04:12:04;99049.88;;;20.51;38.91
18569;BME280;14780;48.316;-1.050;2023-04-10T04:14:49;99053.69;;;20.50;38.93
18569;BME280;14780;48.316;-1.050;2023-04-10T04:17:33;99068.06;;;20.51;38.93
18569;BME280;14780;48.316;-1.050;2023-04-10T04:20:18;99069.16;;;20.50;38.88
18569;BME280;14780;48.316;-1.050;2023-04-10T04:23:04;99061.25;;;20.48;39.00
18569;BME280;14780;48.316;-1.050;2023-04-10T04:25:48;99079.19;;;20.49;38.88
18569;BME280;14780;48.316;-1.050;2023-04-10T04:28:36;99074.03;;;20.48;38.97
18569;BME280;14780;48.316;-1.050;2023-04-10T04:31:20;99072.94;;;20.49;39.03
18569;BME280;14780;48.316;-1.050;2023-04-10T04:34:05;99079.47;;;20.48;39.03
18569;BME280;14780;48.316;-1.050;2023-04-10T04:36:49;99077.81;;;20.47;39.03
18569;BME280;14780;48.316;-1.050;2023-04-10T04:39:34;99079.47;;;20.48;39.03
18569;BME280;14780;48.316;-1.050;2023-04-10T04:42:19;99066.94;;;20.47;39.00
18569;BME280;14780;48.316;-1.050;2023-04-10T04:45:04;99067.19;;;20.45;38.91
18569;BME280;14780;48.316;-1.050;2023-04-10T04:47:49;99062.59;;;20.46;39.08
18569;BME280;14780;48.316;-1.050;2023-04-10T04:50:34;99067.44;;;20.44;39.00
18569;BME280;14780;48.316;-1.050;2023-04-10T04:53:19;99060.09;;;20.44;39.02
18569;BME280;14780;48.316;-1.050;2023-04-10T04:56:03;99060.34;;;20.43;39.10
18569;BME280;14780;48.316;-1.050;2023-04-10T04:58:48;99067.44;;;20.44;39.12
18569;BME280;14780;48.316;-1.050;2023-04-10T05:01:34;99062.25;;;20.42;39.12
18569;BME280;14780;48.316;-1.050;2023-04-10T05:04:18;99062.25;;;20.42;39.12
18569;BME280;14780;48.316;-1.050;2023-04-10T05:07:04;99052.19;;;20.43;39.12
18569;BME280;14780;48.316;-1.050;2023-04-10T05:09:48;99047.84;;;20.42;39.24
18569;BME280;14780;48.316;-1.050;2023-04-10T05:12:34;99045.97;;;20.42;39.20
18569;BME280;14780;48.316;-1.050;2023-04-10T05:15:18;99044.03;;;20.43;39.20
18569;BME280;14780;48.316;-1.050;2023-04-10T05:18:03;99048.91;;;20.41;39.18
18569;BME280;14780;48.316;-1.050;2023-04-10T05:20:48;99036.41;;;20.40;39.14
18569;BME280;14780;48.316;-1.050;2023-04-10T05:23:33;99048.91;;;20.41;39.16
18569;BME280;14780;48.316;-1.050;2023-04-10T05:26:17;99057.06;;;20.41;39.21
18569;BME280;14780;48.316;-1.050;2023-04-10T05:29:02;99057.31;;;20.39;39.25
18569;BME280;14780;48.316;-1.050;2023-04-10T05:31:47;99052.72;;;20.40;39.23
18569;BME280;14780;48.316;-1.050;2023-04-10T05:34:32;99075.25;;;20.40;39.19
18569;BME280;14780;48.316;-1.050;2023-04-10T05:37:16;99070.09;;;20.39;39.18
18569;BME280;14780;48.316;-1.050;2023-04-10T05:40:01;99067.38;;;20.39;39.30
18569;BME280;14780;48.316;-1.050;2023-04-10T05:42:47;99079.06;;;20.39;39.33
18569;BME280;14780;48.316;-1.050;2023-04-10T05:45:31;99073.84;;;20.38;39.41
18569;BME280;14780;48.316;-1.050;2023-04-10T05:48:16;99064.91;;;20.37;39.33
18569;BME280;14780;48.316;-1.050;2023-04-10T05:51:01;99069.50;;;20.37;39.39
18569;BME280;14780;48.316;-1.050;2023-04-10T05:53:47;99052.13;;;20.38;39.40
18569;BME280;14780;48.316;-1.050;2023-04-10T05:56:32;99055.91;;;20.37;39.35
18569;BME280;14780;48.316;-1.050;2023-04-10T05:59:16;99050.47;;;20.37;39.33
18569;BME280;14780;48.316;-1.050;2023-04-10T06:02:01;99053.19;;;20.37;39.40
18569;BME280;14780;48.316;-1.050;2023-04-10T06:04:46;99055.34;;;20.35;39.34
18569;BME280;14780;48.316;-1.050;2023-04-10T06:07:31;99071.66;;;20.35;39.51
18569;BME280;14780;48.316;-1.050;2023-04-10T06:10:16;99071.66;;;20.35;39.35
18569;BME280;14780;48.316;-1.050;2023-04-10T06:13:01;99079.81;;;20.35;39.46
18569;BME280;14780;48.316;-1.050;2023-04-10T06:15:45;99077.09;;;20.35;39.39
18569;BME280;14780;48.316;-1.050;2023-04-10T06:18:30;99078.16;;;20.34;39.44
18569;BME280;14780;48.316;-1.050;2023-04-10T06:21:15;99082.75;;;20.33;39.43
18569;BME280;14780;48.316;-1.050;2023-04-10T06:24:00;99091.75;;;20.34;39.48
18569;BME280;14780;48.316;-1.050;2023-04-10T06:26:45;99098.25;;;20.33;39.44
18569;BME280;14780;48.316;-1.050;2023-04-10T06:29:29;99095.53;;;20.33;39.56
18569;BME280;14780;48.316;-1.050;2023-04-10T06:32:14;99091.19;;;20.32;39.54
18569;BME280;14780;48.316;-1.050;2023-04-10T06:34:59;99092.81;;;20.33;39.38
18569;BME280;14780;48.316;-1.050;2023-04-10T06:37:44;99095.53;;;20.33;39.54
18569;BME280;14780;48.316;-1.050;2023-04-10T06:40:28;99093.91;;;20.32;39.61
18569;BME280;14780;48.316;-1.050;2023-04-10T06:43:14;99077.59;;;20.32;39.56
18569;BME280;14780;48.316;-1.050;2023-04-10T06:45:59;99084.66;;;20.33;39.48
18569;BME280;14780;48.316;-1.050;2023-04-10T06:48:44;99082.19;;;20.31;39.59
18569;BME280;14780;48.316;-1.050;2023-04-10T06:51:29;99082.53;;;20.35;39.40
18569;BME280;14780;48.316;-1.050;2023-04-10T06:54:15;99073.28;;;20.36;39.47
18569;BME280;14780;48.316;-1.050;2023-04-10T06:57:00;99071.66;;;20.35;39.45
18569;BME280;14780;48.316;-1.050;2023-04-10T06:59:45;99093.38;;;20.35;39.48
18569;BME280;14780;48.316;-1.050;2023-04-10T07:02:30;99087.13;;;20.34;39.34
18569;BME280;14780;48.316;-1.050;2023-04-10T07:05:16;99080.88;;;20.34;39.44
18569;BME280;14780;48.316;-1.050;2023-04-10T07:08:01;99078.97;;;20.34;39.47
18569;BME280;14780;48.316;-1.050;2023-04-10T07:10:45;99066.47;;;20.33;39.45
18569;BME280;14780;48.316;-1.050;2023-04-10T07:13:30;99062.66;;;20.34;39.48
18569;BME280;14780;48.316;-1.050;2023-04-10T07:16:15;99053.94;;;20.32;39.42
18569;BME280;14780;48.316;-1.050;2023-04-10T07:19:00;99037.66;;;20.32;39.45
18569;BME280;14780;48.316;-1.050;2023-04-10T07:21:45;99046.63;;;20.33;39.50
18569;BME280;14780;48.316;-1.050;2023-04-10T07:24:33;99041.19;;;20.33;39.50
18569;BME280;14780;48.316;-1.050;2023-04-10T07:27:18;99030.34;;;20.33;39.45
18569;BME280;14780;48.316;-1.050;2023-04-10T07:30:04;99034.13;;;20.32;39.55
18569;BME280;14780;48.316;-1.050;2023-04-10T07:32:50;99046.63;;;20.33;39.56
18569;BME280;14780;48.316;-1.050;2023-04-10T07:35:35;99043.06;;;20.32;39.51
18569;BME280;14780;48.316;-1.050;2023-04-10T07:38:20;99052.06;;;20.33;39.53
18569;BME280;14780;48.316;-1.050;2023-04-10T07:41:05;99057.50;;;20.33;39.65
18569;BME280;14780;48.316;-1.050;2023-04-10T07:43:50;99057.50;;;20.33;39.70
18569;BME280;14780;48.316;-1.050;2023-04-10T07:46:34;99055.03;;;20.31;39.47
18569;BME280;14780;48.316;-1.050;2023-04-10T07:49:19;99051.22;;;20.32;39.68
18569;BME280;14780;48.316;-1.050;2023-04-10T07:52:05;99049.59;;;20.31;39.61
18569;BME280;14780;48.316;-1.050;2023-04-10T07:54:50;99051.47;;;20.31;39.60
18569;BME280;14780;48.316;-1.050;2023-04-10T07:57:35;99050.44;;;20.32;39.60
18569;BME280;14780;48.316;-1.050;2023-04-10T08:00:20;99043.31;;;20.31;39.71
18569;BME280;14780;48.316;-1.050;2023-04-10T08:03:04;99044.16;;;20.31;39.67
18569;BME280;14780;48.316;-1.050;2023-04-10T08:05:50;99051.47;;;20.31;39.64
18569;BME280;14780;48.316;-1.050;2023-04-10T08:08:41;99050.44;;;20.32;39.68
18569;BME280;14780;48.316;-1.050;2023-04-10T08:11:29;99048.75;;;20.31;39.87
18569;BME280;14780;48.316;-1.050;2023-04-10T08:14:14;99054.19;;;20.31;39.77
18569;BME280;14780;48.316;-1.050;2023-04-10T08:16:59;99042.50;;;20.30;39.71
18569;BME280;14780;48.316;-1.050;2023-04-10T08:19:44;99049.84;;;20.30;39.74
18569;BME280;14780;48.316;-1.050;2023-04-10T08:22:29;99047.13;;;20.30;39.79
18569;BME280;14780;48.316;-1.050;2023-04-10T08:25:14;99053.63;;;20.29;39.62
18569;BME280;14780;48.316;-1.050;2023-04-10T08:27:59;99047.38;;;20.28;39.66
18569;BME280;14780;48.316;-1.050;2023-04-10T08:30:44;99056.59;;;20.27;39.76
18569;BME280;14780;48.316;-1.050;2023-04-10T08:33:28;99048.44;;;20.27;39.76
18569;BME280;14780;48.316;-1.050;2023-04-10T08:36:14;99050.34;;;20.27;39.88
18569;BME280;14780;48.316;-1.050;2023-04-10T08:38:59;99044.91;;;20.27;39.80
18569;BME280;14780;48.316;-1.050;2023-04-10T08:41:44;99049.50;;;20.26;39.74
18569;BME280;14780;48.316;-1.050;2023-04-10T08:44:29;99047.63;;;20.27;39.79
18569;BME280;14780;48.316;-1.050;2023-04-10T08:47:15;99048.94;;;20.24;39.78
18569;BME280;14780;48.316;-1.050;2023-04-10T08:50:06;99048.09;;;20.24;39.91
18569;BME280;14780;48.316;-1.050;2023-04-10T08:52:54;99050.25;;;20.22;39.95
18569;BME280;14780;48.316;-1.050;2023-04-10T08:55:40;99055.69;;;20.22;39.97
18569;BME280;14780;48.316;-1.050;2023-04-10T08:58:26;99053.81;;;20.22;39.88
18569;BME280;14780;48.316;-1.050;2023-04-10T09:01:11;99045.91;;;20.21;39.92
18569;BME280;14780;48.316;-1.050;2023-04-10T09:03:56;99054.88;;;20.21;39.96
18569;BME280;14780;48.316;-1.050;2023-04-10T09:06:41;99054.06;;;20.21;39.92
18569;BME280;14780;48.316;-1.050;2023-04-10T09:09:26;99058.41;;;20.22;40.00
18569;BME280;14780;48.316;-1.050;2023-04-10T09:12:16;99054.06;;;20.21;39.97
18569;BME280;14780;48.316;-1.050;2023-04-10T09:15:00;99061.97;;;20.22;39.89
18569;BME280;14780;48.316;-1.050;2023-04-10T09:18:02;99061.69;;;20.24;39.85
18569;BME280;14780;48.316;-1.050;2023-04-10T09:20:47;99057.59;;;20.21;39.88
18569;BME280;14780;48.316;-1.050;2023-04-10T09:23:35;99061.13;;;20.22;39.87
18569;BME280;14780;48.316;-1.050;2023-04-10T09:26:27;99059.25;;;20.22;40.12
18569;BME280;14780;48.316;-1.050;2023-04-10T09:29:12;99075.53;;;20.22;39.95
18569;BME280;14780;48.316;-1.050;2023-04-10T09:31:57;99070.34;;;20.21;40.04
18569;BME280;14780;48.316;-1.050;2023-04-10T09:35:08;99069.03;;;20.23;39.94
18569;BME280;14780;48.316;-1.050;2023-04-10T09:37:54;99071.19;;;20.21;39.88
18569;BME280;14780;48.316;-1.050;2023-04-10T09:40:38;99069.28;;;20.22;40.05
18569;BME280;14780;48.316;-1.050;2023-04-10T09:43:25;99057.84;;;20.20;40.05
18569;BME280;14780;48.316;-1.050;2023-04-10T09:46:10;99051.34;;;20.21;40.11
18569;BME280;14780;48.316;-1.050;2023-04-10T09:48:55;99059.47;;;20.21;40.07
18569;BME280;14780;48.316;-1.050;2023-04-10T09:51:46;99044.81;;;20.22;40.01
18569;BME280;14780;48.316;-1.050;2023-04-10T09:54:36;99040.47;;;20.21;40.01
18569;BME280;14780;48.316;-1.050;2023-04-10T09:57:23;99036.91;;;20.20;40.02
18569;BME280;14780;48.316;-1.050;2023-04-10T10:00:08;99039.06;;;20.18;40.06
18569;BME280;14780;48.316;-1.050;2023-04-10T10:02:55;99045.34;;;20.19;40.10
18569;BME280;14780;48.316;-1.050;2023-04-10T10:05:46;99041.53;;;20.20;40.05
18569;BME280;14780;48.316;-1.050;2023-04-10T10:08:32;99050.78;;;20.19;39.99
18569;BME280;14780;48.316;-1.050;2023-04-10T10:11:21;99039.91;;;20.19;40.14
18569;BME280;14780;48.316;-1.050;2023-04-10T10:14:15;99036.91;;;20.20;40.08
18569;BME280;14780;48.316;-1.050;2023-04-10T10:17:06;99032.31;;;20.21;40.08
18569;BME280;14780;48.316;-1.050;2023-04-10T10:22:48;99021.44;;;20.21;40.26
18569;BME280;14780;48.316;-1.050;2023-04-10T10:25:37;99016.03;;;20.21;40.12
18569;BME280;14780;48.316;-1.050;2023-04-10T10:28:24;99021.44;;;20.21;40.11
18569;BME280;14780;48.316;-1.050;2023-04-10T10:31:09;99020.06;;;20.18;40.08
18569;BME280;14780;48.316;-1.050;2023-04-10T10:33:55;99016.25;;;20.19;40.15
18569;BME280;14780;48.316;-1.050;2023-04-10T10:36:40;99017.09;;;20.20;40.25
18569;BME280;14780;48.316;-1.050;2023-04-10T10:42:39;99010.59;;;20.21;40.17
18569;BME280;14780;48.316;-1.050;2023-04-10T10:45:57;99010.59;;;20.21;40.14
18569;BME280;14780;48.316;-1.050;2023-04-10T10:48:59;99013.06;;;20.22;40.15
18569;BME280;14780;48.316;-1.050;2023-04-10T10:51:49;99009.50;;;20.22;40.03
18569;BME280;14780;48.316;-1.050;2023-04-10T10:54:34;98989.94;;;20.20;40.26
18569;BME280;14780;48.316;-1.050;2023-04-10T10:57:45;98992.66;;;20.20;40.32
18569;BME280;14780;48.316;-1.050;2023-04-10T11:03:33;98987.22;;;20.20;40.22
18569;BME280;14780;48.316;-1.050;2023-04-10T11:06:20;98992.66;;;20.20;40.33
18569;BME280;14780;48.316;-1.050;2023-04-10T11:09:05;98988.03;;;20.20;40.28
18569;BME280;14780;48.316;-1.050;2023-04-10T11:11:59;98978.56;;;20.23;40.38
18569;BME280;14780;48.316;-1.050;2023-04-10T11:14:55;98981.53;;;20.21;40.32
18569;BME280;14780;48.316;-1.050;2023-04-10T11:21:07;98981.25;;;20.23;40.39
18569;BME280;14780;48.316;-1.050;2023-04-10T11:26:39;98979.63;;;20.22;40.46
18569;BME280;14780;48.316;-1.050;2023-04-10T11:32:12;98980.47;;;20.22;40.50
18569;BME280;14780;48.316;-1.050;2023-04-10T11:34:57;98985.91;;;20.22;40.51
18569;BME280;14780;48.316;-1.050;2023-04-10T11:37:42;98979.38;;;20.23;40.54
18569;BME280;14780;48.316;-1.050;2023-04-10T11:40:26;98986.69;;;20.23;40.48
18569;BME280;14780;48.316;-1.050;2023-04-10T11:43:12;98986.47;;;20.24;40.38
18569;BME280;14780;48.316;-1.050;2023-04-10T11:46:02;98989.19;;;20.24;40.54
18569;BME280;14780;48.316;-1.050;2023-04-10T11:48:47;98982.91;;;20.24;40.52
18569;BME280;14780;48.316;-1.050;2023-04-10T11:51:39;98980.19;;;20.24;40.58
18569;BME280;14780;48.316;-1.050;2023-04-10T11:54:25;98981.25;;;20.23;40.63
18569;BME280;14780;48.316;-1.050;2023-04-10T11:57:11;98986.69;;;20.23;40.68
18569;BME280;14780;48.316;-1.050;2023-04-10T11:59:56;98979.16;;;20.25;40.59
18569;BME280;14780;48.316;-1.050;2023-04-10T12:02:52;98969.91;;;20.26;40.70
18569;BME280;14780;48.316;-1.050;2023-04-10T12:05:46;98969.91;;;20.26;40.64
18569;BME280;14780;48.316;-1.050;2023-04-10T12:08:36;98964.47;;;20.26;40.59
18569;BME280;14780;48.316;-1.050;2023-04-10T12:11:23;98944.63;;;20.25;40.30
18569;BME280;14780;48.316;-1.050;2023-04-10T12:14:08;98952.78;;;20.25;40.68
18569;BME280;14780;48.316;-1.050;2023-04-10T12:16:53;98936.47;;;20.25;40.77
18569;BME280;14780;48.316;-1.050;2023-04-10T12:19:39;98950.91;;;20.26;40.72
18569;BME280;14780;48.316;-1.050;2023-04-10T12:22:24;98959.06;;;20.26;40.74
18569;BME280;14780;48.316;-1.050;2023-04-10T12:25:11;98960.69;;;20.27;40.76
18569;BME280;14780;48.316;-1.050;2023-04-10T12:27:56;98972.63;;;20.26;40.95
18569;BME280;14780;48.316;-1.050;2023-04-10T12:30:50;98975.91;;;20.28;40.86
18569;BME280;14780;48.316;-1.050;2023-04-10T12:33:36;98974.28;;;20.27;40.92
18569;BME280;14780;48.316;-1.050;2023-04-10T12:36:23;98967.75;;;20.28;40.95
18569;BME280;14780;48.316;-1.050;2023-04-10T12:39:22;98969.97;;;20.31;40.92
18569;BME280;14780;48.316;-1.050;2023-04-10T12:42:18;98967.25;;;20.31;40.96
18569;BME280;14780;48.316;-1.050;2023-04-10T12:45:04;98959.94;;;20.31;40.89
18569;BME280;14780;48.316;-1.050;2023-04-10T12:47:49;98975.16;;;20.32;40.92
18569;BME280;14780;48.316;-1.050;2023-04-10T12:50:47;98968.91;;;20.32;40.93
18569;BME280;14780;48.316;-1.050;2023-04-10T12:53:45;98965.13;;;20.33;40.93
18569;BME280;14780;48.316;-1.050;2023-04-10T12:56:42;98954.25;;;20.33;41.00
18569;BME280;14780;48.316;-1.050;2023-04-10T12:59:29;98959.69;;;20.33;41.03
18569;BME280;14780;48.316;-1.050;2023-04-10T13:02:14;98964.84;;;20.34;41.01
18569;BME280;14780;48.316;-1.050;2023-04-10T13:04:59;98958.38;;;20.35;41.02
18569;BME280;14780;48.316;-1.050;2023-04-10T13:07:44;98958.38;;;20.35;40.94
18569;BME280;14780;48.316;-1.050;2023-04-10T13:10:29;98970.03;;;20.36;41.11
18569;BME280;14780;48.316;-1.050;2023-04-10T13:13:14;98972.75;;;20.36;41.16
18569;BME280;14780;48.316;-1.050;2023-04-10T13:15:59;98971.69;;;20.37;41.16
18569;BME280;14780;48.316;-1.050;2023-04-10T13:18:44;98980.66;;;20.37;41.13
18569;BME280;14780;48.316;-1.050;2023-04-10T13:21:29;98982.06;;;20.40;41.06
18569;BME280;14780;48.316;-1.050;2023-04-10T13:24:14;98975.00;;;20.39;41.19
18569;BME280;14780;48.316;-1.050;2023-04-10T13:26:59;98980.97;;;20.41;41.10
18569;BME280;14780;48.316;-1.050;2023-04-10T13:29:45;98976.63;;;20.40;41.18
18569;BME280;14780;48.316;-1.050;2023-04-10T13:32:30;98961.97;;;20.41;41.24
18569;BME280;14780;48.316;-1.050;2023-04-10T13:35:14;98954.88;;;20.40;41.18
18569;BME280;14780;48.316;-1.050;2023-04-10T13:38:00;98965.75;;;20.40;41.30
18569;BME280;14780;48.316;-1.050;2023-04-10T13:40:45;98960.03;;;20.41;41.26
18569;BME280;14780;48.316;-1.050;2023-04-10T13:43:30;98959.81;;;20.43;41.25
18569;BME280;14780;48.316;-1.050;2023-04-10T13:46:16;98955.22;;;20.43;41.41
18569;BME280;14780;48.316;-1.050;2023-04-10T13:49:01;98938.06;;;20.43;41.40
18569;BME280;14780;48.316;-1.050;2023-04-10T13:51:46;98943.50;;;20.43;41.28
18569;BME280;14780;48.316;-1.050;2023-04-10T13:54:31;98936.19;;;20.43;41.41
18569;BME280;14780;48.316;-1.050;2023-04-10T13:57:16;98938.06;;;20.43;41.34
18569;BME280;14780;48.316;-1.050;2023-04-10T14:00:00;98931.00;;;20.42;41.43
18569;BME280;14780;48.316;-1.050;2023-04-10T14:02:45;98921.50;;;20.44;41.32
18569;BME280;14780;48.316;-1.050;2023-04-10T14:05:30;98926.72;;;20.46;41.39
18569;BME280;14780;48.316;-1.050;2023-04-10T14:08:14;98915.84;;;20.46;41.50
18569;BME280;14780;48.316;-1.050;2023-04-10T14:10:59;98899.53;;;20.46;41.35
18569;BME280;14780;48.316;-1.050;2023-04-10T14:13:44;98903.59;;;20.48;41.40
18569;BME280;14780;48.316;-1.050;2023-04-10T14:16:29;98902.81;;;20.48;41.40
18569;BME280;14780;48.316;-1.050;2023-04-10T14:19:14;98891.09;;;20.47;41.35
18569;BME280;14780;48.316;-1.050;2023-04-10T14:21:59;98889.47;;;20.46;41.37
18569;BME280;14780;48.316;-1.050;2023-04-10T14:24:43;98882.16;;;20.47;41.35
18569;BME280;14780;48.316;-1.050;2023-04-10T14:27:28;98889.22;;;20.48;41.23
18569;BME280;14780;48.316;-1.050;2023-04-10T14:30:13;98876.44;;;20.48;41.33
18569;BME280;14780;48.316;-1.050;2023-04-10T14:32:58;98875.63;;;20.48;41.33
18569;BME280;14780;48.316;-1.050;2023-04-10T14:35:44;98866.41;;;20.49;41.38
18569;BME280;14780;48.316;-1.050;2023-04-10T14:38:28;98872.63;;;20.49;41.44
18569;BME280;14780;48.316;-1.050;2023-04-10T14:41:13;98874.56;;;20.49;41.41
18569;BME280;14780;48.316;-1.050;2023-04-10T14:43:57;98869.91;;;20.49;41.37
18569;BME280;14780;48.316;-1.050;2023-04-10T14:46:42;98888.69;;;20.51;41.38
18569;BME280;14780;48.316;-1.050;2023-04-10T14:49:28;98888.69;;;20.51;41.33
18569;BME280;14780;48.316;-1.050;2023-04-10T14:52:12;98906.09;;;20.50;41.39
18569;BME280;14780;48.316;-1.050;2023-04-10T14:54:57;98919.44;;;20.51;41.42
18569;BME280;14780;48.316;-1.050;2023-04-10T14:57:41;98910.44;;;20.51;41.40